createdAt,value
2018-11-14T00:00:07.745Z,7.70
2018-11-14T00:02:36.136Z,8.73
2018-11-14T00:05:04.659Z,8.67
2018-11-14T00:07:33.163Z,7.07
2018-11-14T00:10:01.528Z,6.73
2018-11-14T00:12:30.019Z,6.93
2018-11-14T00:15:01.340Z,8.57
2018-11-14T00:17:30.399Z,9.07
2018-11-14T00:19:58.711Z,7.37
2018-11-14T00:22:27.134Z,8.23
2018-11-14T00:24:55.521Z,8.77
2018-11-14T00:27:24.255Z,9.87
2018-11-14T00:29:52.656Z,8.00
2018-11-14T00:32:21.043Z,7.83
2018-11-14T00:34:49.508Z,9.37
2018-11-14T00:37:17.803Z,8.60
2018-11-14T00:39:46.260Z,7.87
2018-11-14T00:42:14.612Z,9.30
2018-11-14T00:44:43.177Z,10.83
2018-11-14T00:47:11.720Z,10.70
2018-11-14T00:49:40.225Z,9.63
2018-11-14T00:52:08.489Z,8.67
2018-11-14T00:54:36.758Z,9.17
2018-11-14T00:57:05.273Z,9.93
2018-11-14T00:59:33.744Z,7.90
2018-11-14T01:02:02.865Z,8.00
2018-11-14T01:04:31.063Z,8.73
2018-11-14T01:06:59.480Z,10.30
2018-11-14T01:09:27.796Z,11.33
2018-11-14T01:11:56.180Z,7.83
2018-11-14T01:14:24.534Z,8.93
2018-11-14T01:16:52.848Z,8.70
2018-11-14T01:19:21.193Z,8.90
2018-11-14T01:21:49.547Z,8.93
2018-11-14T01:24:17.988Z,12.47
2018-11-14T01:26:46.402Z,8.03
2018-11-14T01:29:15.662Z,9.80
2018-11-14T01:31:44.019Z,11.57
2018-11-14T01:34:12.445Z,9.20
2018-11-14T01:36:40.720Z,9.33
2018-11-14T01:39:10.506Z,9.50
2018-11-14T01:41:39.546Z,11.53
2018-11-14T01:44:08.132Z,8.20
2018-11-14T01:46:37.296Z,9.37
2018-11-14T01:49:06.444Z,8.87
2018-11-14T01:51:34.781Z,9.43
2018-11-14T01:54:03.144Z,10.23
2018-11-14T01:56:31.584Z,9.53
2018-11-14T01:58:59.983Z,10.43
2018-11-14T02:01:28.347Z,9.80
2018-11-14T02:03:56.772Z,10.33
2018-11-14T02:06:25.274Z,10.03
2018-11-14T02:08:53.695Z,11.47
2018-11-14T02:11:22.233Z,12.33
2018-11-14T02:13:50.726Z,11.40
2018-11-14T02:16:19.125Z,11.33
2018-11-14T02:18:47.533Z,12.20
2018-11-14T02:21:15.965Z,12.00
2018-11-14T02:23:44.328Z,11.70
2018-11-14T02:26:12.851Z,11.80
2018-11-14T02:28:41.611Z,12.23
2018-11-14T02:31:09.944Z,12.17
2018-11-14T02:33:38.292Z,11.30
2018-11-14T02:36:06.596Z,11.97
2018-11-14T02:38:34.964Z,11.47
2018-11-14T02:41:03.301Z,11.03
2018-11-14T02:43:31.597Z,11.10
2018-11-14T02:45:59.979Z,13.40
2018-11-14T02:48:28.254Z,11.00
2018-11-14T02:51:07.849Z,12.03
2018-11-14T02:53:36.174Z,9.97
2018-11-14T02:56:07.134Z,11.17
2018-11-14T02:58:35.453Z,15.87
2018-11-14T03:01:05.033Z,13.07
2018-11-14T03:03:33.315Z,10.00
2018-11-14T03:06:01.662Z,11.90
2018-11-14T03:08:29.983Z,10.43
2018-11-14T03:10:58.347Z,11.37
2018-11-14T03:13:26.705Z,12.70
2018-11-14T03:15:55.019Z,12.00
2018-11-14T03:18:23.337Z,11.90
2018-11-14T03:20:51.607Z,11.47
2018-11-14T03:23:19.985Z,10.97
2018-11-14T03:25:48.327Z,9.87
2018-11-14T03:28:16.667Z,10.17
2018-11-14T03:30:45.042Z,13.70
2018-11-14T03:33:13.343Z,10.90
2018-11-14T03:35:46.796Z,11.77
2018-11-14T03:38:15.179Z,13.53
2018-11-14T03:40:43.492Z,11.80
2018-11-14T03:43:11.784Z,10.93
2018-11-14T03:45:40.124Z,10.80
2018-11-14T03:48:08.500Z,10.77
2018-11-14T03:50:36.809Z,9.97
2018-11-14T03:53:05.688Z,11.67
2018-11-14T03:55:34.029Z,10.50
2018-11-14T03:58:02.325Z,9.77
2018-11-14T04:00:30.687Z,10.03
2018-11-14T04:02:59.017Z,10.50
2018-11-14T04:05:27.439Z,10.03
2018-11-14T04:07:55.740Z,8.80
2018-11-14T04:10:24.308Z,8.70
2018-11-14T04:12:52.682Z,7.80
2018-11-14T04:15:20.972Z,8.03
2018-11-14T04:17:49.521Z,8.10
2018-11-14T04:20:18.236Z,9.53
2018-11-14T04:22:47.163Z,7.13
2018-11-14T04:25:16.734Z,8.10
2018-11-14T04:27:45.632Z,7.33
2018-11-14T04:30:15.247Z,7.47
2018-11-14T04:32:44.148Z,9.33
2018-11-14T04:35:13.426Z,10.20
2018-11-14T04:37:41.776Z,9.10
2018-11-14T04:40:12.147Z,10.37
2018-11-14T04:42:40.512Z,9.23
2018-11-14T04:45:12.268Z,9.47
2018-11-14T04:47:40.629Z,11.10
2018-11-14T04:50:11.915Z,10.87
2018-11-14T04:52:40.279Z,10.57
2018-11-14T04:55:10.207Z,9.10
2018-11-14T04:57:38.791Z,10.60
2018-11-14T05:00:07.878Z,9.90
2018-11-14T05:02:36.274Z,8.40
2018-11-14T05:05:05.246Z,9.30
2018-11-14T05:07:33.555Z,9.70
2018-11-14T05:10:01.932Z,9.87
2018-11-14T05:12:30.263Z,10.50
2018-11-14T05:14:58.588Z,8.97
2018-11-14T05:17:26.896Z,11.30
2018-11-14T05:19:55.229Z,9.40
2018-11-14T05:22:23.561Z,9.60
2018-11-14T05:24:51.900Z,10.60
2018-11-14T05:27:20.216Z,10.30
2018-11-14T05:29:48.475Z,8.47
2018-11-14T05:32:16.801Z,8.70
2018-11-14T05:34:45.146Z,10.50
2018-11-14T05:37:13.424Z,10.50
2018-11-14T05:39:41.785Z,8.70
2018-11-14T05:42:10.008Z,8.20
2018-11-14T05:44:38.271Z,9.17
2018-11-14T05:47:06.823Z,9.00
2018-11-14T05:49:35.253Z,10.10
2018-11-14T05:52:03.573Z,10.27
2018-11-14T05:54:32.031Z,14.43
2018-11-14T05:57:00.395Z,14.60
2018-11-14T05:59:28.715Z,14.67
2018-11-14T06:01:57.051Z,18.07
2018-11-14T06:04:25.375Z,25.83
2018-11-14T06:06:53.964Z,37.03
2018-11-14T06:09:22.309Z,36.00
2018-11-14T06:11:50.584Z,40.43
2018-11-14T06:14:18.907Z,31.70
2018-11-14T06:16:47.320Z,29.93
2018-11-14T06:19:15.671Z,28.57
2018-11-14T06:21:44.010Z,24.50
2018-11-14T06:24:12.322Z,25.30
2018-11-14T06:26:40.650Z,20.80
2018-11-14T06:29:09.003Z,16.83
2018-11-14T06:31:37.391Z,16.60
2018-11-14T06:34:12.775Z,15.37
2018-11-14T06:36:41.079Z,16.80
2018-11-14T06:39:10.755Z,13.70
2018-11-14T06:41:39.261Z,14.93
2018-11-14T06:44:08.555Z,13.97
2018-11-14T06:46:37.474Z,12.40
2018-11-14T06:49:05.979Z,22.10
2018-11-14T06:51:34.324Z,32.23
2018-11-14T06:54:02.644Z,35.30
2018-11-14T06:56:31.021Z,33.90
2018-11-14T06:58:59.423Z,39.60
2018-11-14T07:01:27.623Z,32.30
2018-11-14T07:03:56.276Z,26.10
2018-11-14T07:06:24.575Z,21.87
2018-11-14T07:08:52.919Z,22.90
2018-11-14T07:11:21.291Z,23.60
2018-11-14T07:13:49.576Z,29.97
2018-11-14T07:16:17.945Z,24.20
2018-11-14T07:18:46.206Z,28.43
2018-11-14T07:21:14.499Z,37.70
2018-11-14T07:23:42.925Z,40.73
2018-11-14T07:26:11.204Z,36.10
2018-11-14T07:28:40.271Z,30.80
2018-11-14T07:31:08.595Z,22.30
2018-11-14T07:33:36.984Z,34.07
2018-11-14T07:36:05.375Z,27.73
2018-11-14T07:38:37.543Z,64.27
2018-11-14T07:41:08.643Z,44.97
2018-11-14T07:43:37.675Z,40.13
2018-11-14T07:46:06.438Z,21.23
2018-11-14T07:48:35.098Z,24.60
2018-11-14T07:51:03.829Z,33.03
2018-11-14T07:53:33.056Z,21.07
2018-11-14T07:56:01.500Z,23.03
2018-11-14T07:58:29.988Z,16.87
2018-11-14T08:00:58.376Z,29.17
2018-11-14T08:03:26.741Z,22.87
2018-11-14T08:05:55.521Z,15.77
2018-11-14T08:08:23.928Z,48.33
2018-11-14T08:10:52.343Z,41.83
2018-11-14T08:13:23.773Z,19.90
2018-11-14T08:15:53.781Z,36.07
2018-11-14T08:18:22.466Z,48.80
2018-11-14T08:20:50.869Z,42.10
2018-11-14T08:23:19.339Z,65.90
2018-11-14T08:25:47.681Z,26.23
2018-11-14T08:28:16.163Z,21.40
2018-11-14T08:30:45.142Z,22.80
2018-11-14T08:33:13.364Z,29.30
2018-11-14T08:35:41.652Z,27.90
2018-11-14T08:38:10.336Z,27.63
2018-11-14T08:40:38.608Z,36.27
2018-11-14T08:43:07.260Z,35.57
2018-11-14T08:45:35.747Z,34.57
2018-11-14T08:48:04.296Z,83.63
2018-11-14T08:50:32.555Z,34.80
2018-11-14T08:53:00.920Z,29.50
2018-11-14T08:55:29.212Z,31.77
2018-11-14T08:57:57.588Z,33.60
2018-11-14T09:00:26.857Z,34.00
2018-11-14T09:02:55.217Z,31.93
2018-11-14T09:05:23.512Z,57.17
2018-11-14T09:07:51.933Z,20.40
2018-11-14T09:10:21.447Z,37.33
2018-11-14T09:12:50.074Z,76.27
2018-11-14T09:15:20.488Z,22.83
2018-11-14T09:17:48.943Z,26.40
2018-11-14T09:20:19.610Z,20.20
2018-11-14T09:22:47.907Z,21.43
2018-11-14T09:25:18.219Z,31.43
2018-11-14T09:27:46.523Z,37.57
2018-11-14T09:30:18.229Z,43.97
2018-11-14T09:32:46.536Z,27.57
2018-11-14T09:35:16.099Z,20.70
2018-11-14T09:37:44.434Z,17.33
2018-11-14T09:40:15.359Z,16.40
2018-11-14T09:42:43.716Z,13.97
2018-11-14T09:45:13.574Z,13.20
2018-11-14T09:47:41.987Z,13.50
2018-11-14T09:50:13.132Z,12.20
2018-11-14T09:52:41.632Z,11.50
2018-11-14T09:55:10.673Z,12.17
2018-11-14T09:57:39.619Z,11.40
2018-11-14T10:00:14.143Z,10.33
2018-11-14T10:02:42.839Z,9.20
2018-11-14T10:05:13.804Z,10.97
2018-11-14T10:07:42.184Z,11.13
2018-11-14T10:10:12.883Z,15.03
2018-11-14T10:12:41.248Z,18.07
2018-11-14T10:15:12.588Z,10.97
2018-11-14T10:17:41.726Z,10.87
2018-11-14T10:20:11.922Z,9.67
2018-11-14T10:22:40.827Z,10.93
2018-11-14T10:25:09.519Z,12.00
2018-11-14T10:27:38.727Z,12.47
2018-11-14T10:30:09.751Z,12.23
2018-11-14T10:32:37.973Z,10.77
2018-11-14T10:35:09.077Z,11.33
2018-11-14T10:37:37.531Z,10.63
2018-11-14T10:40:07.422Z,10.40
2018-11-14T10:42:35.692Z,10.37
2018-11-14T10:45:04.034Z,10.80
2018-11-14T10:47:32.320Z,11.10
2018-11-14T10:50:00.667Z,12.00
2018-11-14T10:52:28.967Z,12.10
2018-11-14T10:55:03.722Z,11.73
2018-11-14T10:57:32.023Z,11.60
2018-11-14T11:00:00.378Z,11.03
2018-11-14T11:02:33.874Z,12.53
2018-11-14T11:05:07.386Z,11.73
2018-11-14T11:07:40.812Z,10.43
2018-11-14T11:10:14.353Z,11.97
2018-11-14T11:12:47.969Z,11.20
2018-11-14T11:15:23.167Z,11.30
2018-11-14T11:18:02.218Z,11.30
2018-11-14T11:20:30.632Z,12.20
2018-11-14T11:23:00.201Z,11.53
2018-11-14T11:25:28.595Z,15.60
2018-11-14T11:27:57.512Z,12.33
2018-11-14T11:30:26.006Z,11.00
2018-11-14T11:32:54.383Z,12.33
2018-11-14T11:35:22.755Z,11.17
2018-11-14T11:37:51.076Z,11.07
2018-11-14T11:40:19.585Z,11.60
2018-11-14T11:42:48.056Z,11.50
2018-11-14T11:45:16.419Z,11.93
2018-11-14T11:47:44.784Z,10.27
2018-11-14T11:50:13.299Z,10.60
2018-11-14T11:52:41.690Z,9.77
2018-11-14T11:55:10.118Z,10.40
2018-11-14T11:57:38.547Z,9.00
2018-11-14T12:00:10.137Z,9.47
2018-11-14T12:02:38.515Z,9.30
2018-11-14T12:05:08.428Z,8.83
2018-11-14T12:07:36.759Z,8.53
2018-11-14T12:10:05.885Z,8.83
2018-11-14T12:12:34.209Z,7.63
2018-11-14T12:15:02.548Z,7.27
2018-11-14T12:17:31.059Z,7.67
2018-11-14T12:19:59.508Z,7.40
2018-11-14T12:22:27.887Z,7.83
2018-11-14T12:24:56.351Z,8.00
2018-11-14T12:27:24.892Z,7.80
2018-11-14T12:29:53.226Z,7.40
2018-11-14T12:32:21.519Z,8.23
2018-11-14T12:34:49.941Z,6.90
2018-11-14T12:37:18.305Z,7.63
2018-11-14T12:39:46.755Z,7.37
2018-11-14T12:42:15.113Z,6.73
2018-11-14T12:44:43.518Z,6.43
2018-11-14T12:47:11.960Z,6.27
2018-11-14T12:49:40.416Z,6.20
2018-11-14T12:52:08.824Z,6.70
2018-11-14T12:54:37.146Z,7.10
2018-11-14T12:57:06.819Z,6.10
2018-11-14T12:59:35.578Z,9.67
2018-11-14T13:02:03.812Z,6.73
2018-11-14T13:04:32.262Z,7.10
2018-11-14T13:07:00.619Z,7.80
2018-11-14T13:09:29.046Z,7.90
2018-11-14T13:11:57.595Z,7.63
2018-11-14T13:14:25.959Z,8.37
2018-11-14T13:16:54.372Z,8.10
2018-11-14T13:19:22.750Z,8.13
2018-11-14T13:21:51.153Z,8.13
2018-11-14T13:24:19.498Z,8.33
2018-11-14T13:26:47.868Z,7.97
2018-11-14T13:29:16.224Z,8.40
2018-11-14T13:31:44.591Z,8.13
2018-11-14T13:34:13.024Z,7.80
2018-11-14T13:36:41.507Z,7.40
2018-11-14T13:39:10.687Z,8.83
2018-11-14T13:41:39.175Z,9.17
2018-11-14T13:44:07.577Z,8.70
2018-11-14T13:46:35.952Z,8.53
2018-11-14T13:49:04.450Z,10.50
2018-11-14T13:51:32.735Z,8.67
2018-11-14T13:54:01.154Z,9.20
2018-11-14T13:56:29.559Z,9.40
2018-11-14T13:58:57.994Z,9.83
2018-11-14T14:01:40.389Z,9.73
2018-11-14T14:04:24.224Z,10.70
2018-11-14T14:06:52.875Z,11.20
2018-11-14T14:09:21.319Z,11.80
2018-11-14T14:11:49.759Z,10.83
2018-11-14T14:14:18.895Z,11.90
2018-11-14T14:16:47.308Z,12.10
2018-11-14T14:19:16.363Z,12.70
2018-11-14T14:21:44.670Z,12.80
2018-11-14T14:24:13.018Z,13.37
2018-11-14T14:26:43.484Z,13.80
2018-11-14T14:29:12.074Z,14.37
2018-11-14T14:31:44.052Z,14.13
2018-11-14T14:34:12.484Z,14.70
2018-11-14T14:36:41.689Z,14.37
2018-11-14T14:39:11.407Z,14.53
2018-11-14T14:41:39.804Z,14.10
2018-11-14T14:44:08.233Z,14.83
2018-11-14T14:46:36.745Z,14.13
2018-11-14T14:49:05.337Z,13.40
2018-11-14T14:51:33.816Z,16.33
2018-11-14T14:54:02.252Z,24.97
2018-11-14T14:56:30.830Z,20.73
2018-11-14T14:58:59.677Z,17.30
2018-11-14T15:01:28.272Z,16.77
2018-11-14T15:03:56.807Z,17.67
2018-11-14T15:06:25.351Z,17.23
2018-11-14T15:08:53.894Z,17.00
2018-11-14T15:11:22.328Z,17.63
2018-11-14T15:14:06.378Z,17.00
2018-11-14T15:16:35.239Z,16.70
2018-11-14T15:19:03.910Z,16.27
2018-11-14T15:21:32.278Z,15.17
2018-11-14T15:24:00.593Z,16.20
2018-11-14T15:26:30.172Z,16.47
2018-11-14T15:28:58.594Z,16.67
2018-11-14T15:31:27.058Z,22.20
2018-11-14T15:33:55.519Z,20.70
2018-11-14T15:36:23.955Z,18.63
2018-11-14T15:38:52.450Z,20.00
2018-11-14T15:41:20.922Z,20.70
2018-11-14T15:43:49.423Z,19.30
2018-11-14T15:46:17.860Z,15.20
2018-11-14T15:48:46.322Z,11.83
2018-11-14T15:51:14.777Z,9.30
2018-11-14T15:53:44.177Z,8.80
2018-11-14T15:56:12.606Z,8.30
2018-11-14T15:58:41.314Z,8.53
2018-11-14T16:01:09.816Z,6.57
2018-11-14T16:03:38.255Z,7.00
2018-11-14T16:06:06.701Z,7.60
2018-11-14T16:08:35.023Z,8.07
2018-11-14T16:11:03.447Z,7.77
2018-11-14T16:13:31.809Z,7.57
2018-11-14T16:16:00.753Z,8.77
2018-11-14T16:18:29.167Z,11.97
2018-11-14T16:20:57.555Z,12.13
2018-11-14T16:23:26.095Z,9.00
2018-11-14T16:25:54.404Z,8.73
2018-11-14T16:28:22.704Z,8.57
2018-11-14T16:30:51.055Z,8.40
2018-11-14T16:33:19.384Z,8.10
2018-11-14T16:35:47.679Z,8.90
2018-11-14T16:38:16.047Z,9.70
2018-11-14T16:40:44.361Z,8.40
2018-11-14T16:43:12.703Z,10.63
2018-11-14T16:45:41.043Z,9.93
2018-11-14T16:48:09.468Z,11.23
2018-11-14T16:50:37.801Z,9.90
2018-11-14T16:53:06.237Z,9.33
2018-11-14T16:55:34.698Z,11.40
2018-11-14T16:58:02.998Z,10.47
2018-11-14T17:00:31.926Z,11.07
2018-11-14T17:03:00.516Z,11.73
2018-11-14T17:05:29.951Z,13.27
2018-11-14T17:08:01.967Z,11.33
2018-11-14T17:10:30.303Z,13.60
2018-11-14T17:13:04.699Z,13.70
2018-11-14T17:15:40.135Z,13.33
2018-11-14T17:18:08.599Z,12.70
2018-11-14T17:20:36.929Z,14.43
2018-11-14T17:23:06.932Z,13.73
2018-11-14T17:25:35.454Z,13.37
2018-11-14T17:28:03.889Z,14.00
2018-11-14T17:30:32.274Z,15.73
2018-11-14T17:33:00.685Z,14.10
2018-11-14T17:35:31.234Z,16.40
2018-11-14T17:38:00.332Z,14.97
2018-11-14T17:40:29.922Z,15.80
2018-11-14T17:42:58.661Z,14.70
2018-11-14T17:45:28.299Z,16.73
2018-11-14T17:47:56.992Z,16.23
2018-11-14T17:50:27.692Z,16.83
2018-11-14T17:52:57.302Z,18.23
2018-11-14T17:55:26.185Z,17.80
2018-11-14T17:57:54.695Z,18.77
2018-11-14T18:00:25.332Z,17.67
2018-11-14T18:02:53.921Z,16.63
2018-11-14T18:05:23.638Z,16.40
2018-11-14T18:07:52.691Z,17.40
2018-11-14T18:10:22.423Z,16.70
2018-11-14T18:12:51.711Z,16.67
2018-11-14T18:15:20.123Z,17.63
2018-11-14T18:17:49.317Z,16.73
2018-11-14T18:20:19.098Z,17.00
2018-11-14T18:22:48.420Z,17.63
2018-11-14T18:25:17.343Z,17.70
2018-11-14T18:27:45.772Z,16.60
2018-11-14T18:30:20.076Z,18.53
2018-11-14T18:32:48.864Z,17.87
2018-11-14T18:35:18.247Z,17.40
2018-11-14T18:37:49.188Z,18.23
2018-11-14T18:40:19.052Z,19.13
2018-11-14T18:42:47.612Z,17.93
2018-11-14T18:45:23.218Z,18.63
2018-11-14T18:47:51.883Z,20.97
2018-11-14T18:50:21.010Z,18.33
2018-11-14T18:52:49.880Z,18.80
2018-11-14T18:55:19.441Z,19.60
2018-11-14T18:57:48.176Z,18.90
2018-11-14T19:00:21.656Z,18.70
2018-11-14T19:02:50.038Z,18.77
2018-11-14T19:05:19.714Z,18.73
2018-11-14T19:07:48.116Z,21.57
2018-11-14T19:10:18.783Z,18.93
2018-11-14T19:12:47.941Z,20.10
2018-11-14T19:15:17.755Z,18.57
2018-11-14T19:17:46.304Z,18.40
2018-11-14T19:20:16.326Z,19.33
2018-11-14T19:22:45.351Z,19.53
2018-11-14T19:25:15.144Z,18.27
2018-11-14T19:27:44.767Z,20.43
2018-11-14T19:30:15.203Z,23.53
2018-11-14T19:32:45.015Z,22.43
2018-11-14T19:35:13.903Z,19.17
2018-11-14T19:37:43.546Z,19.40
2018-11-14T19:40:15.379Z,19.17
2018-11-14T19:42:44.354Z,20.10
2018-11-14T19:45:15.246Z,18.33
2018-11-14T19:47:44.178Z,17.67
2018-11-14T19:50:14.666Z,18.07
2018-11-14T19:52:43.476Z,19.10
2018-11-14T19:55:13.282Z,18.37
2018-11-14T19:57:42.754Z,20.37
2018-11-14T20:00:14.125Z,18.97
2018-11-14T20:02:42.811Z,20.33
2018-11-14T20:05:12.414Z,19.07
2018-11-14T20:07:40.822Z,20.60
2018-11-14T20:10:12.153Z,21.27
2018-11-14T20:12:40.604Z,19.00
2018-11-14T20:15:17.086Z,20.93
2018-11-14T20:17:46.181Z,19.33
2018-11-14T20:20:17.399Z,19.60
2018-11-14T20:22:46.347Z,19.50
2018-11-14T20:25:14.883Z,19.57
2018-11-14T20:27:43.672Z,18.43
2018-11-14T20:30:16.630Z,21.30
2018-11-14T20:32:44.976Z,20.50
2018-11-14T20:35:15.137Z,20.13
2018-11-14T20:37:43.552Z,19.30
2018-11-14T20:40:14.451Z,20.73
2018-11-14T20:42:43.175Z,19.87
2018-11-14T20:45:14.474Z,21.03
2018-11-14T20:47:42.892Z,18.33
2018-11-14T20:50:16.434Z,19.70
2018-11-14T20:52:45.655Z,20.07
2018-11-14T20:55:14.218Z,18.47
2018-11-14T20:57:43.220Z,20.83
2018-11-14T21:00:15.230Z,19.43
2018-11-14T21:02:43.678Z,19.43
2018-11-14T21:05:12.852Z,29.57
2018-11-14T21:07:42.152Z,19.00
2018-11-14T21:10:12.459Z,17.87
2018-11-14T21:12:41.219Z,17.83
2018-11-14T21:15:13.084Z,19.30
2018-11-14T21:17:41.611Z,18.17
2018-11-14T21:20:10.567Z,19.93
2018-11-14T21:22:39.340Z,18.73
2018-11-14T21:25:09.357Z,18.63
2018-11-14T21:27:37.758Z,17.93
2018-11-14T21:30:08.375Z,16.90
2018-11-14T21:32:37.039Z,17.80
2018-11-14T21:35:09.223Z,17.90
2018-11-14T21:37:37.572Z,17.30
2018-11-14T21:40:07.698Z,17.90
2018-11-14T21:42:36.548Z,17.50
2018-11-14T21:45:04.999Z,17.60
2018-11-14T21:47:34.493Z,17.00
2018-11-14T21:50:03.263Z,17.87
2018-11-14T21:52:31.615Z,16.93
2018-11-14T21:54:59.999Z,18.70
2018-11-14T21:57:28.347Z,17.43
2018-11-14T21:59:56.980Z,16.60
2018-11-14T22:02:25.388Z,17.50
2018-11-14T22:04:53.846Z,17.93
2018-11-14T22:07:22.350Z,17.53
2018-11-14T22:09:50.801Z,18.17
2018-11-14T22:12:19.227Z,19.17
2018-11-14T22:14:47.584Z,17.23
2018-11-14T22:17:16.094Z,18.10
2018-11-14T22:19:44.551Z,19.03
2018-11-14T22:22:13.052Z,16.80
2018-11-14T22:24:41.480Z,17.43
2018-11-14T22:27:09.874Z,18.20
2018-11-14T22:29:38.889Z,16.77
2018-11-14T22:32:08.146Z,18.93
2018-11-14T22:34:36.796Z,16.77
2018-11-14T22:37:05.225Z,16.20
2018-11-14T22:39:33.692Z,16.10
2018-11-14T22:42:02.095Z,15.60
2018-11-14T22:44:30.483Z,16.40
2018-11-14T22:46:58.786Z,17.50
2018-11-14T22:49:27.139Z,15.53
2018-11-14T22:51:55.517Z,16.87
2018-11-14T22:54:23.849Z,15.70
2018-11-14T22:56:52.192Z,15.10
2018-11-14T22:59:20.601Z,14.50
2018-11-14T23:01:48.946Z,15.90
2018-11-14T23:04:17.400Z,15.50
2018-11-14T23:06:45.800Z,16.93
2018-11-14T23:09:14.175Z,16.40
2018-11-14T23:11:42.532Z,15.27
2018-11-14T23:14:10.883Z,16.70
2018-11-14T23:16:39.320Z,16.70
2018-11-14T23:19:08.279Z,16.13
2018-11-14T23:21:36.729Z,16.40
2018-11-14T23:24:05.453Z,17.87
2018-11-14T23:26:33.879Z,17.00
2018-11-14T23:29:02.232Z,15.93
2018-11-14T23:31:30.779Z,18.47
2018-11-14T23:33:59.139Z,16.53
2018-11-14T23:36:27.504Z,17.30
2018-11-14T23:38:55.905Z,17.97
2018-11-14T23:41:24.370Z,18.70
2018-11-14T23:43:52.696Z,17.17
2018-11-14T23:46:21.139Z,16.07
2018-11-14T23:48:49.506Z,28.73
2018-11-14T23:51:17.914Z,18.13
2018-11-14T23:53:46.571Z,18.20
2018-11-14T23:56:14.944Z,17.20
2018-11-14T23:58:43.296Z,17.93
